Time,TemperatureF,DewpointF,PressureIn,WindDirection,WindDirectionDegrees,WindSpeedMPH,WindSpeedGustMPH,Humidity,HourlyPrecipIn,Conditions,Clouds,dailyrainin,SolarRadiationWatts/m^2,SoftwareType,DateUTC
2013-08-20 00:01:00,96.0,51.0,-100.00,West,264,2.0,3.0,22,0.00,,,0.00,0.000000,,2013-08-20 07:01:00,
2013-08-20 00:42:00,94.0,57.0,-100.00,WSW,251,4.0,7.0,29,0.00,,,0.00,0.000000,,2013-08-20 07:42:00,
2013-08-20 00:52:00,94.0,57.0,-100.00,WSW,251,4.0,7.0,29,0.00,,,0.00,0.000000,,2013-08-20 07:52:00,
2013-08-20 01:02:00,94.0,57.0,-100.00,WSW,251,4.0,7.0,29,0.00,,,0.00,0.000000,,2013-08-20 08:02:00,
2013-08-20 01:42:00,91.0,63.0,-100.00,WSW,242,3.0,7.0,39,0.00,,,0.00,0.000000,,2013-08-20 08:42:00,
2013-08-20 01:52:00,91.0,63.0,-100.00,WSW,242,3.0,7.0,39,0.00,,,0.00,0.000000,,2013-08-20 08:52:00,
2013-08-20 02:01:00,91.0,63.0,-100.00,WSW,242,3.0,7.0,39,0.00,,,0.00,0.000000,,2013-08-20 09:01:00,
2013-08-20 02:42:00,89.0,65.0,-100.00,SE,137,0.0,6.0,46,0.00,,,0.00,0.000000,,2013-08-20 09:42:00,
2013-08-20 02:53:00,89.0,65.0,-100.00,SE,137,0.0,6.0,46,0.00,,,0.00,0.000000,,2013-08-20 09:53:00,
2013-08-20 03:03:00,89.0,65.0,-100.00,SE,137,0.0,6.0,46,0.00,,,0.00,0.000000,,2013-08-20 10:03:00,
2013-08-20 04:42:00,86.0,69.0,-100.00,SE,137,0.0,4.0,57,0.00,,,0.00,0.000000,,2013-08-20 11:42:00,
2013-08-20 05:42:00,83.0,58.0,-100.00,SE,124,5.0,5.0,43,0.00,,,0.00,0.000000,,2013-08-20 12:42:00,
2013-08-20 05:52:00,83.0,58.0,-100.00,SE,124,5.0,5.0,43,0.00,,,0.00,0.000000,,2013-08-20 12:52:00,
2013-08-20 06:01:00,83.0,58.0,-100.00,SE,124,5.0,5.0,43,0.00,,,0.00,0.000000,,2013-08-20 13:01:00,
2013-08-20 06:42:00,84.0,58.0,-100.00,SSE,156,3.0,9.0,41,0.00,,,0.00,0.000000,,2013-08-20 13:42:00,
2013-08-20 06:52:00,84.0,58.0,-100.00,SSE,156,3.0,9.0,41,0.00,,,0.00,0.000000,,2013-08-20 13:52:00,
2013-08-20 07:02:00,84.0,58.0,-100.00,SSE,156,3.0,9.0,41,0.00,,,0.00,0.000000,,2013-08-20 14:02:00,
2013-08-20 07:42:00,84.0,62.0,-100.00,SE,144,3.0,7.0,48,0.00,,,0.00,0.000000,,2013-08-20 14:42:00,
2013-08-20 07:52:00,84.0,62.0,-100.00,SE,144,3.0,7.0,48,0.00,,,0.00,0.000000,,2013-08-20 14:52:00,
2013-08-20 08:02:00,84.0,62.0,-100.00,SE,144,3.0,7.0,48,0.00,,,0.00,0.000000,,2013-08-20 15:02:00,
2013-08-20 08:43:00,86.0,61.0,-100.00,SE,127,3.0,6.0,43,0.00,,,0.00,75.000000,,2013-08-20 15:43:00,
2013-08-20 08:53:00,86.0,61.0,-100.00,SE,127,3.0,6.0,43,0.00,,,0.00,75.000000,,2013-08-20 15:53:00,
2013-08-20 09:04:00,86.0,61.0,-100.00,SE,127,3.0,6.0,43,0.00,,,0.00,75.000000,,2013-08-20 16:04:00,
2013-08-20 09:30:00,-999.0,-99.9,-100.00,SSE,158,7.0,7.0,28,0.00,,,0.00,220.000000,,2013-08-20 16:30:00,
2013-08-20 09:42:00,89.0,52.0,-100.00,SSE,158,7.0,7.0,28,0.00,,,0.00,220.000000,,2013-08-20 16:42:00,
2013-08-20 09:52:00,89.0,52.0,-100.00,SSE,158,7.0,7.0,28,0.00,,,0.00,220.000000,,2013-08-20 16:52:00,
2013-08-20 10:03:00,89.0,52.0,-100.00,SSE,158,7.0,7.0,28,0.00,,,0.00,220.000000,,2013-08-20 17:03:00,
2013-08-20 15:42:00,112.0,45.0,-100.00,SE,125,3.0,8.0,11,0.00,,,0.00,1137.000000,,2013-08-20 22:42:00,
2013-08-20 15:53:00,112.0,45.0,-100.00,SE,125,3.0,8.0,11,0.00,,,0.00,1137.000000,,2013-08-20 22:53:00,
2013-08-20 16:03:00,112.0,45.0,-100.00,SE,125,3.0,8.0,11,0.00,,,0.00,1137.000000,,2013-08-20 23:03:00,
2013-08-20 16:43:00,114.0,47.0,-100.00,SSW,200,3.0,10.0,11,0.00,,,0.00,1030.000000,,2013-08-20 23:43:00,
2013-08-20 16:53:00,114.0,47.0,-100.00,SSW,200,3.0,10.0,11,0.00,,,0.00,1030.000000,,2013-08-20 23:53:00,
2013-08-20 17:02:00,114.0,47.0,-100.00,SSW,200,3.0,10.0,11,0.00,,,0.00,1030.000000,,2013-08-21 00:02:00,
2013-08-20 17:42:00,113.0,46.0,-100.00,WSW,244,5.0,11.0,11,0.00,,,0.00,851.000000,,2013-08-21 00:42:00,
2013-08-20 17:52:00,113.0,46.0,-100.00,WSW,244,5.0,11.0,11,0.00,,,0.00,851.000000,,2013-08-21 00:52:00,
2013-08-20 18:02:00,113.0,46.0,-100.00,WSW,244,5.0,11.0,11,0.00,,,0.00,851.000000,,2013-08-21 01:02:00,
2013-08-20 18:42:00,109.0,45.0,-100.00,SSW,207,5.0,14.0,12,0.00,,,0.00,430.000000,,2013-08-21 01:42:00,
2013-08-20 18:52:00,109.0,45.0,-100.00,SSW,207,5.0,14.0,12,0.00,,,0.00,430.000000,,2013-08-21 01:52:00,
2013-08-20 19:02:00,109.0,45.0,-100.00,SSW,207,5.0,14.0,12,0.00,,,0.00,430.000000,,2013-08-21 02:02:00,
2013-08-20 19:42:00,109.0,47.0,-100.00,SSW,210,5.0,9.0,13,0.00,,,0.00,212.000000,,2013-08-21 02:42:00,
2013-08-20 19:52:00,109.0,47.0,-100.00,SSW,210,5.0,9.0,13,0.00,,,0.00,212.000000,,2013-08-21 02:52:00,
2013-08-20 20:02:00,109.0,47.0,-100.00,SSW,210,5.0,9.0,13,0.00,,,0.00,212.000000,,2013-08-21 03:02:00,
2013-08-20 21:44:00,99.0,63.0,-100.00,South,187,6.0,17.0,31,0.00,,,0.00,1.000000,,2013-08-21 04:44:00,
2013-08-20 21:54:00,99.0,63.0,-100.00,South,187,6.0,17.0,31,0.00,,,0.00,1.000000,,2013-08-21 04:54:00,
2013-08-20 22:02:00,99.0,63.0,-100.00,South,187,6.0,17.0,31,0.00,,,0.00,1.000000,,2013-08-21 05:02:00,
2013-08-20 22:43:00,97.0,63.0,-100.00,North,2,2.0,14.0,33,0.00,,,0.00,0.000000,,2013-08-21 05:43:00,
2013-08-20 22:52:00,97.0,63.0,-100.00,North,2,2.0,14.0,33,0.00,,,0.00,0.000000,,2013-08-21 05:52:00,
2013-08-20 23:02:00,97.0,63.0,-100.00,North,2,2.0,14.0,33,0.00,,,0.00,0.000000,,2013-08-21 06:02:00,
2013-08-20 23:42:00,94.0,60.0,-100.00,South,186,3.0,9.0,32,0.00,,,0.00,0.000000,,2013-08-21 06:42:00,
2013-08-20 23:52:00,94.0,60.0,-100.00,South,186,3.0,9.0,32,0.00,,,0.00,0.000000,,2013-08-21 06:52:00,